Current Conditions
Mostly Clear
Conditions



Pressure
1012.87 (hPa) - 29.91 (inHG)
Visibility

9.7 (km) - 6.0 (miles)
Temperature
36  °C
Temperature
15  °C
Dewpoint
28  %
 Humidity
Wind Speed
10  km/h
5  kts
6  mph
2.7  m/s
Wind Direction
N
45°
E
90°
135°
S
180°
225°
W
270°
315°
 290°

West North
West
Airport Data
LGSA
Chania International Airport
Metar :LGSA 130650Z 29005KT CAVOK 36/15 Q1013
Thu 13th June 09:50 am
Raw Metar Info
Raw METAR is the most common format in the world for the transmission of observational weather data. It is highly standardized through the International Civil Aviation Organization (ICAO), which allows it to be understood throughout most of the world.
API Info
Data Provided by
https://www.checkwx.com/weather/LGSA

Aviation Weather providing METAR, TAF, AIRMET, SIGMET and OUTLOOK Weather Reports
© Info
CSS/SVG/PHP scripts were developed by weather34 for use in the weather34 template © 2015-2024

Guide Info provided by Metar-Wikipedia